Aeroporto :
LOGIN :

Iscrizione | Disclaimer

   EN    FR    IT 

 










Sommario :    VFR   VFR Marginale   IFR   IFR Intensivo   IFR Molto Intensivo
Visibilità : 
Base nubi : 
>= 8 km
>= 3000ft
5 / 8 km
1000 / 3000 ft
1500m / 5 km
500 / 1000 ft
800 / 1500m
200 / 500 ft
< 800m
< 200 ft
Simboli :   Temporali  Nebbia  Neve Forte  Precipitazioni Forti  Vento > 20 kt
SIGMETs :   Varie  Temporali  Ghiacco  Turbolenza  Onda orograficha  Ceneri Vulcaniche






- Altitudine del aeroporto : 16 ft
- Codice IATA : LPX


EVLA - Liepaja

ULTIMO METAR :
  • 252120Z AUTO 00000KT 9999 BKN003/// 08/08 Q1029

METARs OBSOLETI :
  • 252050Z AUTO 02003KT 340V050 9999 OVC003/// 08/08 Q1028
  • 252020Z AUTO 01004KT 330V040 9999 BKN004/// 08/08 Q1028
  • 251950Z AUTO 00000KT 9999 NCD 08/07 Q1028
  • 251920Z AUTO VRB02KT 9999 FEW007/// 08/07 Q1028
  • 251850Z AUTO 36003KT 330V050 9999 SCT007/// 09/08 Q1027

TAF TAF EVLA
Valido dal 25 a 21 ore il 26 a 21 ore UTC


252004Z 2521/2621 35007KT 9999 SCT020
TEMPO 2521/2603 3000 BR BKN005



MetMap, La meteo Aeronautica in un colpo d'occhio ! - Copyright ORBIFLY Dicembre 2007 - Disclaimer

ORBIFLY MET'MAP TEAM :

Programmazione e sviluppo : Alexandra Zaïnal
Concezione : Baudouin d'Aumeries
Aiuto per la programmazione : Marc-Olivier Méhu
Supporto tecnico e logistico : Manuel Goepfert
Aiuto per la traduzione : Arnaldo La Scala

Contatto : metmap@orbifly.com




FONTI E CREDITI :

   NOAA